sensor_id;sensor_type;location;lat;lon;timestamp;P1;durP1;ratioP1;P2;durP2;ratioP2
16270;SDS011;8243;49.048;8.396;2023-02-10T00:02:22;24.97;;;15.30;;
16270;SDS011;8243;49.048;8.396;2023-02-10T00:04:47;29.50;;;16.17;;
16270;SDS011;8243;49.048;8.396;2023-02-10T00:07:13;28.27;;;17.20;;
16270;SDS011;8243;49.048;8.396;2023-02-10T00:09:39;27.40;;;16.57;;
16270;SDS011;8243;49.048;8.396;2023-02-10T00:12:04;25.43;;;16.73;;
16270;SDS011;8243;49.048;8.396;2023-02-10T00:14:32;26.43;;;17.37;;
16270;SDS011;8243;49.048;8.396;2023-02-10T00:16:58;22.70;;;15.13;;
16270;SDS011;8243;49.048;8.396;2023-02-10T00:19:25;26.87;;;16.30;;
16270;SDS011;8243;49.048;8.396;2023-02-10T00:21:52;23.63;;;15.30;;
16270;SDS011;8243;49.048;8.396;2023-02-10T00:24:18;22.97;;;15.27;;
16270;SDS011;8243;49.048;8.396;2023-02-10T00:26:44;21.73;;;14.83;;
16270;SDS011;8243;49.048;8.396;2023-02-10T00:29:10;24.67;;;16.10;;
16270;SDS011;8243;49.048;8.396;2023-02-10T00:31:36;27.57;;;15.97;;
16270;SDS011;8243;49.048;8.396;2023-02-10T00:34:01;25.70;;;16.57;;
16270;SDS011;8243;49.048;8.396;2023-02-10T00:36:27;26.87;;;17.47;;
16270;SDS011;8243;49.048;8.396;2023-02-10T00:38:53;24.73;;;15.60;;
16270;SDS011;8243;49.048;8.396;2023-02-10T00:41:19;29.93;;;17.73;;
16270;SDS011;8243;49.048;8.396;2023-02-10T00:43:46;23.63;;;16.37;;
16270;SDS011;8243;49.048;8.396;2023-02-10T00:46:12;44.67;;;27.10;;
16270;SDS011;8243;49.048;8.396;2023-02-10T00:48:40;34.30;;;22.53;;
16270;SDS011;8243;49.048;8.396;2023-02-10T00:51:06;34.27;;;22.80;;
16270;SDS011;8243;49.048;8.396;2023-02-10T00:53:32;25.47;;;17.30;;
16270;SDS011;8243;49.048;8.396;2023-02-10T00:55:58;32.33;;;21.90;;
16270;SDS011;8243;49.048;8.396;2023-02-10T00:58:24;26.97;;;17.87;;
16270;SDS011;8243;49.048;8.396;2023-02-10T01:00:50;25.93;;;15.80;;
16270;SDS011;8243;49.048;8.396;2023-02-10T01:03:16;25.67;;;15.53;;
16270;SDS011;8243;49.048;8.396;2023-02-10T01:05:41;24.40;;;15.77;;
16270;SDS011;8243;49.048;8.396;2023-02-10T01:08:09;23.57;;;15.53;;
16270;SDS011;8243;49.048;8.396;2023-02-10T01:10:35;25.37;;;15.97;;
16270;SDS011;8243;49.048;8.396;2023-02-10T01:13:02;25.43;;;16.37;;
16270;SDS011;8243;49.048;8.396;2023-02-10T01:15:28;25.47;;;17.03;;
16270;SDS011;8243;49.048;8.396;2023-02-10T01:17:53;22.73;;;15.80;;
16270;SDS011;8243;49.048;8.396;2023-02-10T01:20:19;25.20;;;15.73;;
16270;SDS011;8243;49.048;8.396;2023-02-10T01:22:44;28.63;;;16.50;;
16270;SDS011;8243;49.048;8.396;2023-02-10T01:25:10;26.77;;;16.33;;
16270;SDS011;8243;49.048;8.396;2023-02-10T01:27:35;25.47;;;16.17;;
16270;SDS011;8243;49.048;8.396;2023-02-10T01:30:01;25.67;;;17.10;;
16270;SDS011;8243;49.048;8.396;2023-02-10T01:32:27;31.13;;;19.10;;
16270;SDS011;8243;49.048;8.396;2023-02-10T01:34:52;24.27;;;16.43;;
16270;SDS011;8243;49.048;8.396;2023-02-10T01:37:18;23.10;;;14.37;;
16270;SDS011;8243;49.048;8.396;2023-02-10T01:39:44;22.90;;;15.10;;
16270;SDS011;8243;49.048;8.396;2023-02-10T01:42:13;22.60;;;15.13;;
16270;SDS011;8243;49.048;8.396;2023-02-10T01:47:05;21.87;;;15.00;;
16270;SDS011;8243;49.048;8.396;2023-02-10T01:49:33;22.80;;;14.80;;
16270;SDS011;8243;49.048;8.396;2023-02-10T01:52:09;22.77;;;14.13;;
16270;SDS011;8243;49.048;8.396;2023-02-10T01:54:41;21.23;;;14.43;;
16270;SDS011;8243;49.048;8.396;2023-02-10T01:57:10;23.17;;;14.27;;
16270;SDS011;8243;49.048;8.396;2023-02-10T01:59:36;24.10;;;14.90;;
16270;SDS011;8243;49.048;8.396;2023-02-10T02:02:03;20.03;;;13.10;;
16270;SDS011;8243;49.048;8.396;2023-02-10T02:04:42;19.40;;;12.77;;
16270;SDS011;8243;49.048;8.396;2023-02-10T02:07:14;23.40;;;14.70;;
16270;SDS011;8243;49.048;8.396;2023-02-10T02:09:41;23.90;;;14.27;;
16270;SDS011;8243;49.048;8.396;2023-02-10T02:12:15;24.07;;;15.53;;
16270;SDS011;8243;49.048;8.396;2023-02-10T02:15:10;24.20;;;15.17;;
16270;SDS011;8243;49.048;8.396;2023-02-10T02:36:47;25.77;;;17.63;;
16270;SDS011;8243;49.048;8.396;2023-02-10T02:39:17;27.50;;;17.93;;
16270;SDS011;8243;49.048;8.396;2023-02-10T02:41:42;24.53;;;17.60;;
16270;SDS011;8243;49.048;8.396;2023-02-10T02:44:08;26.70;;;17.33;;
16270;SDS011;8243;49.048;8.396;2023-02-10T02:46:44;29.23;;;18.47;;
16270;SDS011;8243;49.048;8.396;2023-02-10T02:49:30;29.23;;;18.13;;
16270;SDS011;8243;49.048;8.396;2023-02-10T02:52:14;27.87;;;17.27;;
16270;SDS011;8243;49.048;8.396;2023-02-10T02:57:29;30.17;;;19.40;;
16270;SDS011;8243;49.048;8.396;2023-02-10T03:00:10;33.47;;;19.83;;
16270;SDS011;8243;49.048;8.396;2023-02-10T03:02:41;30.33;;;19.97;;
16270;SDS011;8243;49.048;8.396;2023-02-10T03:05:10;31.00;;;20.10;;
16270;SDS011;8243;49.048;8.396;2023-02-10T03:07:36;31.47;;;21.67;;
16270;SDS011;8243;49.048;8.396;2023-02-10T03:10:02;30.90;;;20.23;;
16270;SDS011;8243;49.048;8.396;2023-02-10T03:12:28;35.27;;;21.27;;
16270;SDS011;8243;49.048;8.396;2023-02-10T03:14:54;32.07;;;20.33;;
16270;SDS011;8243;49.048;8.396;2023-02-10T03:17:19;31.70;;;20.10;;
16270;SDS011;8243;49.048;8.396;2023-02-10T03:19:45;29.67;;;21.63;;
16270;SDS011;8243;49.048;8.396;2023-02-10T03:22:10;31.23;;;21.43;;
16270;SDS011;8243;49.048;8.396;2023-02-10T03:24:37;34.50;;;21.40;;
16270;SDS011;8243;49.048;8.396;2023-02-10T03:27:02;37.27;;;20.27;;
16270;SDS011;8243;49.048;8.396;2023-02-10T03:29:30;33.20;;;21.70;;
16270;SDS011;8243;49.048;8.396;2023-02-10T03:31:56;38.27;;;22.23;;
16270;SDS011;8243;49.048;8.396;2023-02-10T03:34:22;36.30;;;23.07;;
16270;SDS011;8243;49.048;8.396;2023-02-10T03:36:48;38.53;;;23.20;;
16270;SDS011;8243;49.048;8.396;2023-02-10T03:39:13;34.67;;;21.17;;
16270;SDS011;8243;49.048;8.396;2023-02-10T03:41:39;34.23;;;21.83;;
16270;SDS011;8243;49.048;8.396;2023-02-10T03:44:04;33.37;;;21.37;;
16270;SDS011;8243;49.048;8.396;2023-02-10T03:46:31;36.53;;;22.33;;
16270;SDS011;8243;49.048;8.396;2023-02-10T03:48:56;34.80;;;22.97;;
16270;SDS011;8243;49.048;8.396;2023-02-10T03:51:22;36.10;;;21.63;;
16270;SDS011;8243;49.048;8.396;2023-02-10T03:53:48;36.83;;;24.10;;
16270;SDS011;8243;49.048;8.396;2023-02-10T03:56:13;34.80;;;22.60;;
16270;SDS011;8243;49.048;8.396;2023-02-10T03:58:39;37.97;;;23.90;;
16270;SDS011;8243;49.048;8.396;2023-02-10T04:01:09;38.80;;;23.20;;
16270;SDS011;8243;49.048;8.396;2023-02-10T04:03:39;34.53;;;22.77;;
16270;SDS011;8243;49.048;8.396;2023-02-10T04:06:04;40.30;;;24.13;;
16270;SDS011;8243;49.048;8.396;2023-02-10T04:08:30;35.47;;;22.10;;
16270;SDS011;8243;49.048;8.396;2023-02-10T04:10:56;41.70;;;23.17;;
16270;SDS011;8243;49.048;8.396;2023-02-10T04:13:21;38.60;;;23.13;;
16270;SDS011;8243;49.048;8.396;2023-02-10T04:15:47;39.63;;;23.50;;
16270;SDS011;8243;49.048;8.396;2023-02-10T04:18:13;36.80;;;22.97;;
16270;SDS011;8243;49.048;8.396;2023-02-10T04:20:38;35.97;;;23.73;;
16270;SDS011;8243;49.048;8.396;2023-02-10T04:23:04;40.60;;;24.80;;
16270;SDS011;8243;49.048;8.396;2023-02-10T04:25:29;37.17;;;22.93;;
16270;SDS011;8243;49.048;8.396;2023-02-10T04:27:55;36.80;;;22.77;;
16270;SDS011;8243;49.048;8.396;2023-02-10T04:30:20;37.60;;;23.20;;
16270;SDS011;8243;49.048;8.396;2023-02-10T04:32:46;38.30;;;24.37;;
16270;SDS011;8243;49.048;8.396;2023-02-10T04:35:11;39.17;;;23.63;;
16270;SDS011;8243;49.048;8.396;2023-02-10T04:37:37;35.37;;;23.03;;
16270;SDS011;8243;49.048;8.396;2023-02-10T04:40:03;39.50;;;23.23;;
16270;SDS011;8243;49.048;8.396;2023-02-10T04:42:28;34.57;;;22.70;;
16270;SDS011;8243;49.048;8.396;2023-02-10T04:44:57;33.23;;;21.97;;
16270;SDS011;8243;49.048;8.396;2023-02-10T04:47:26;37.20;;;23.23;;
16270;SDS011;8243;49.048;8.396;2023-02-10T04:49:53;32.47;;;22.33;;
16270;SDS011;8243;49.048;8.396;2023-02-10T04:52:19;38.17;;;23.43;;
16270;SDS011;8243;49.048;8.396;2023-02-10T04:54:44;33.43;;;21.73;;
16270;SDS011;8243;49.048;8.396;2023-02-10T04:57:11;36.40;;;23.70;;
16270;SDS011;8243;49.048;8.396;2023-02-10T04:59:36;37.10;;;22.87;;
16270;SDS011;8243;49.048;8.396;2023-02-10T05:02:02;35.23;;;21.70;;
16270;SDS011;8243;49.048;8.396;2023-02-10T05:04:28;34.00;;;22.30;;
16270;SDS011;8243;49.048;8.396;2023-02-10T05:06:53;33.60;;;21.50;;
16270;SDS011;8243;49.048;8.396;2023-02-10T05:09:23;34.80;;;22.30;;
16270;SDS011;8243;49.048;8.396;2023-02-10T05:11:54;33.07;;;21.10;;
16270;SDS011;8243;49.048;8.396;2023-02-10T05:14:20;29.73;;;20.93;;
16270;SDS011;8243;49.048;8.396;2023-02-10T05:16:45;36.27;;;23.53;;
16270;SDS011;8243;49.048;8.396;2023-02-10T05:19:11;35.80;;;22.40;;
16270;SDS011;8243;49.048;8.396;2023-02-10T05:21:37;35.77;;;23.67;;
16270;SDS011;8243;49.048;8.396;2023-02-10T05:24:02;36.57;;;23.63;;
16270;SDS011;8243;49.048;8.396;2023-02-10T05:26:28;40.53;;;27.20;;
16270;SDS011;8243;49.048;8.396;2023-02-10T05:28:54;41.07;;;26.47;;
16270;SDS011;8243;49.048;8.396;2023-02-10T05:31:19;42.60;;;25.80;;
16270;SDS011;8243;49.048;8.396;2023-02-10T05:33:45;38.13;;;24.90;;
16270;SDS011;8243;49.048;8.396;2023-02-10T05:36:10;41.90;;;25.90;;
16270;SDS011;8243;49.048;8.396;2023-02-10T05:38:36;37.50;;;23.97;;
16270;SDS011;8243;49.048;8.396;2023-02-10T05:41:02;42.07;;;26.00;;
16270;SDS011;8243;49.048;8.396;2023-02-10T05:43:27;35.43;;;22.97;;
16270;SDS011;8243;49.048;8.396;2023-02-10T05:45:53;40.47;;;22.77;;
16270;SDS011;8243;49.048;8.396;2023-02-10T05:48:19;31.07;;;21.07;;
16270;SDS011;8243;49.048;8.396;2023-02-10T05:50:44;31.50;;;21.63;;
16270;SDS011;8243;49.048;8.396;2023-02-10T05:53:14;33.07;;;22.30;;
16270;SDS011;8243;49.048;8.396;2023-02-10T05:55:40;37.77;;;23.33;;
16270;SDS011;8243;49.048;8.396;2023-02-10T05:58:05;36.00;;;22.90;;
16270;SDS011;8243;49.048;8.396;2023-02-10T06:00:31;38.03;;;24.43;;
16270;SDS011;8243;49.048;8.396;2023-02-10T06:02:57;35.67;;;23.27;;
16270;SDS011;8243;49.048;8.396;2023-02-10T06:05:22;35.23;;;22.17;;
16270;SDS011;8243;49.048;8.396;2023-02-10T06:07:48;39.47;;;24.13;;
16270;SDS011;8243;49.048;8.396;2023-02-10T06:10:14;36.00;;;22.60;;
16270;SDS011;8243;49.048;8.396;2023-02-10T06:12:39;34.87;;;22.23;;
16270;SDS011;8243;49.048;8.396;2023-02-10T06:15:05;38.03;;;23.13;;
16270;SDS011;8243;49.048;8.396;2023-02-10T06:17:31;36.73;;;23.27;;
16270;SDS011;8243;49.048;8.396;2023-02-10T06:19:57;38.13;;;23.83;;
16270;SDS011;8243;49.048;8.396;2023-02-10T06:22:23;40.70;;;26.40;;
16270;SDS011;8243;49.048;8.396;2023-02-10T06:24:48;37.77;;;23.10;;
16270;SDS011;8243;49.048;8.396;2023-02-10T06:27:16;36.63;;;24.67;;
16270;SDS011;8243;49.048;8.396;2023-02-10T06:29:42;41.73;;;25.53;;
16270;SDS011;8243;49.048;8.396;2023-02-10T06:32:07;38.27;;;24.70;;
16270;SDS011;8243;49.048;8.396;2023-02-10T06:34:33;45.17;;;27.10;;
16270;SDS011;8243;49.048;8.396;2023-02-10T06:36:58;44.30;;;25.83;;
16270;SDS011;8243;49.048;8.396;2023-02-10T06:39:24;44.77;;;27.00;;
16270;SDS011;8243;49.048;8.396;2023-02-10T06:41:49;48.13;;;27.40;;
16270;SDS011;8243;49.048;8.396;2023-02-10T06:44:15;47.20;;;28.80;;
16270;SDS011;8243;49.048;8.396;2023-02-10T06:46:40;41.47;;;25.70;;
16270;SDS011;8243;49.048;8.396;2023-02-10T06:49:06;47.90;;;28.67;;
16270;SDS011;8243;49.048;8.396;2023-02-10T06:51:31;52.67;;;30.40;;
16270;SDS011;8243;49.048;8.396;2023-02-10T06:53:58;45.83;;;30.10;;
16270;SDS011;8243;49.048;8.396;2023-02-10T06:56:24;49.43;;;29.73;;
16270;SDS011;8243;49.048;8.396;2023-02-10T06:58:49;52.00;;;30.93;;
16270;SDS011;8243;49.048;8.396;2023-02-10T07:01:16;49.67;;;30.30;;
16270;SDS011;8243;49.048;8.396;2023-02-10T07:03:43;48.97;;;30.03;;
16270;SDS011;8243;49.048;8.396;2023-02-10T07:06:08;50.17;;;29.23;;
16270;SDS011;8243;49.048;8.396;2023-02-10T07:08:34;50.60;;;31.20;;
16270;SDS011;8243;49.048;8.396;2023-02-10T07:11:00;50.20;;;30.63;;
16270;SDS011;8243;49.048;8.396;2023-02-10T07:13:26;54.50;;;33.07;;
16270;SDS011;8243;49.048;8.396;2023-02-10T07:15:51;53.27;;;33.23;;
16270;SDS011;8243;49.048;8.396;2023-02-10T07:18:18;57.93;;;32.43;;
16270;SDS011;8243;49.048;8.396;2023-02-10T07:20:43;52.50;;;34.23;;
16270;SDS011;8243;49.048;8.396;2023-02-10T07:23:09;52.37;;;33.63;;
16270;SDS011;8243;49.048;8.396;2023-02-10T07:25:34;56.03;;;35.70;;
16270;SDS011;8243;49.048;8.396;2023-02-10T07:28:00;51.77;;;33.03;;
16270;SDS011;8243;49.048;8.396;2023-02-10T07:30:25;49.27;;;32.17;;
16270;SDS011;8243;49.048;8.396;2023-02-10T07:32:51;45.20;;;30.13;;
16270;SDS011;8243;49.048;8.396;2023-02-10T07:35:17;36.10;;;26.40;;
16270;SDS011;8243;49.048;8.396;2023-02-10T07:37:42;40.93;;;27.80;;
16270;SDS011;8243;49.048;8.396;2023-02-10T07:40:08;35.43;;;24.13;;
16270;SDS011;8243;49.048;8.396;2023-02-10T07:42:34;36.30;;;24.23;;
16270;SDS011;8243;49.048;8.396;2023-02-10T07:45:00;34.70;;;23.87;;
16270;SDS011;8243;49.048;8.396;2023-02-10T07:47:26;32.10;;;22.27;;
16270;SDS011;8243;49.048;8.396;2023-02-10T07:49:52;33.37;;;23.00;;
16270;SDS011;8243;49.048;8.396;2023-02-10T07:52:19;30.87;;;22.37;;
16270;SDS011;8243;49.048;8.396;2023-02-10T07:54:48;30.37;;;22.50;;
16270;SDS011;8243;49.048;8.396;2023-02-10T07:57:14;32.53;;;22.80;;
16270;SDS011;8243;49.048;8.396;2023-02-10T07:59:40;28.43;;;21.30;;
16270;SDS011;8243;49.048;8.396;2023-02-10T08:02:07;31.20;;;20.53;;
16270;SDS011;8243;49.048;8.396;2023-02-10T08:04:33;27.70;;;20.43;;
16270;SDS011;8243;49.048;8.396;2023-02-10T08:06:59;28.10;;;21.10;;
16270;SDS011;8243;49.048;8.396;2023-02-10T08:09:24;25.70;;;19.73;;
16270;SDS011;8243;49.048;8.396;2023-02-10T08:11:50;24.97;;;19.40;;
16270;SDS011;8243;49.048;8.396;2023-02-10T08:14:15;27.97;;;20.47;;
16270;SDS011;8243;49.048;8.396;2023-02-10T08:16:41;28.73;;;19.57;;
16270;SDS011;8243;49.048;8.396;2023-02-10T08:19:06;27.73;;;20.53;;
16270;SDS011;8243;49.048;8.396;2023-02-10T08:21:32;27.73;;;20.47;;
16270;SDS011;8243;49.048;8.396;2023-02-10T08:23:58;27.73;;;19.87;;
16270;SDS011;8243;49.048;8.396;2023-02-10T08:26:23;29.80;;;20.27;;
16270;SDS011;8243;49.048;8.396;2023-02-10T08:28:49;27.53;;;19.87;;
16270;SDS011;8243;49.048;8.396;2023-02-10T08:31:16;27.53;;;20.53;;
16270;SDS011;8243;49.048;8.396;2023-02-10T08:33:41;26.37;;;19.60;;
16270;SDS011;8243;49.048;8.396;2023-02-10T08:36:09;27.00;;;20.53;;
16270;SDS011;8243;49.048;8.396;2023-02-10T08:38:36;28.17;;;20.63;;
16270;SDS011;8243;49.048;8.396;2023-02-10T08:41:02;28.90;;;20.97;;
16270;SDS011;8243;49.048;8.396;2023-02-10T08:43:28;29.83;;;20.73;;
16270;SDS011;8243;49.048;8.396;2023-02-10T08:45:55;27.23;;;20.20;;
16270;SDS011;8243;49.048;8.396;2023-02-10T08:48:21;28.27;;;19.47;;
16270;SDS011;8243;49.048;8.396;2023-02-10T08:50:47;26.23;;;20.17;;
16270;SDS011;8243;49.048;8.396;2023-02-10T08:53:13;29.43;;;20.93;;
16270;SDS011;8243;49.048;8.396;2023-02-10T08:55:38;26.10;;;20.77;;
16270;SDS011;8243;49.048;8.396;2023-02-10T08:58:04;26.80;;;20.47;;
16270;SDS011;8243;49.048;8.396;2023-02-10T09:00:30;25.90;;;20.87;;
16270;SDS011;8243;49.048;8.396;2023-02-10T09:02:56;25.53;;;20.97;;
16270;SDS011;8243;49.048;8.396;2023-02-10T09:05:21;26.37;;;20.50;;
16270;SDS011;8243;49.048;8.396;2023-02-10T09:07:47;28.40;;;21.53;;
16270;SDS011;8243;49.048;8.396;2023-02-10T09:10:13;28.33;;;22.80;;
16270;SDS011;8243;49.048;8.396;2023-02-10T09:12:39;29.70;;;21.53;;
16270;SDS011;8243;49.048;8.396;2023-02-10T09:15:06;26.20;;;20.97;;
16270;SDS011;8243;49.048;8.396;2023-02-10T09:17:32;29.07;;;21.87;;
16270;SDS011;8243;49.048;8.396;2023-02-10T09:19:58;28.60;;;21.60;;
16270;SDS011;8243;49.048;8.396;2023-02-10T09:22:23;28.73;;;21.93;;
16270;SDS011;8243;49.048;8.396;2023-02-10T09:24:49;29.40;;;21.97;;
16270;SDS011;8243;49.048;8.396;2023-02-10T09:27:17;26.20;;;21.17;;
16270;SDS011;8243;49.048;8.396;2023-02-10T09:29:43;30.07;;;21.90;;
16270;SDS011;8243;49.048;8.396;2023-02-10T09:32:08;27.47;;;21.43;;
16270;SDS011;8243;49.048;8.396;2023-02-10T09:34:34;28.27;;;21.30;;
16270;SDS011;8243;49.048;8.396;2023-02-10T09:37:00;26.50;;;20.87;;
16270;SDS011;8243;49.048;8.396;2023-02-10T09:39:27;26.73;;;20.73;;
16270;SDS011;8243;49.048;8.396;2023-02-10T09:44:28;30.07;;;23.30;;
16270;SDS011;8243;49.048;8.396;2023-02-10T09:54:55;27.63;;;22.83;;
16270;SDS011;8243;49.048;8.396;2023-02-10T09:57:22;30.53;;;23.47;;
16270;SDS011;8243;49.048;8.396;2023-02-10T09:59:57;29.77;;;23.20;;
16270;SDS011;8243;49.048;8.396;2023-02-10T10:02:26;28.20;;;22.20;;
16270;SDS011;8243;49.048;8.396;2023-02-10T10:04:56;31.40;;;22.30;;
16270;SDS011;8243;49.048;8.396;2023-02-10T10:07:31;28.23;;;22.70;;
16270;SDS011;8243;49.048;8.396;2023-02-10T10:10:04;31.60;;;23.43;;
16270;SDS011;8243;49.048;8.396;2023-02-10T10:12:40;31.40;;;22.77;;
16270;SDS011;8243;49.048;8.396;2023-02-10T10:15:14;31.70;;;23.87;;
16270;SDS011;8243;49.048;8.396;2023-02-10T10:20:56;28.77;;;22.43;;
16270;SDS011;8243;49.048;8.396;2023-02-10T10:26:21;28.10;;;21.37;;
16270;SDS011;8243;49.048;8.396;2023-02-10T10:29:01;29.77;;;22.63;;
16270;SDS011;8243;49.048;8.396;2023-02-10T10:31:48;30.13;;;21.90;;
16270;SDS011;8243;49.048;8.396;2023-02-10T10:34:21;27.27;;;21.60;;
16270;SDS011;8243;49.048;8.396;2023-02-10T10:36:52;32.80;;;22.97;;
16270;SDS011;8243;49.048;8.396;2023-02-10T10:39:34;28.33;;;21.97;;
16270;SDS011;8243;49.048;8.396;2023-02-10T10:42:06;29.53;;;23.07;;
16270;SDS011;8243;49.048;8.396;2023-02-10T10:44:47;29.23;;;22.00;;
16270;SDS011;8243;49.048;8.396;2023-02-10T10:50:02;28.00;;;22.03;;
16270;SDS011;8243;49.048;8.396;2023-02-10T10:52:32;29.10;;;22.33;;
16270;SDS011;8243;49.048;8.396;2023-02-10T10:55:04;30.83;;;23.30;;
16270;SDS011;8243;49.048;8.396;2023-02-10T10:57:35;35.57;;;24.60;;
16270;SDS011;8243;49.048;8.396;2023-02-10T11:03:01;33.33;;;23.43;;
16270;SDS011;8243;49.048;8.396;2023-02-10T11:05:32;29.10;;;21.73;;
16270;SDS011;8243;49.048;8.396;2023-02-10T11:08:00;32.87;;;22.10;;
16270;SDS011;8243;49.048;8.396;2023-02-10T11:12:56;27.07;;;20.90;;
16270;SDS011;8243;49.048;8.396;2023-02-10T11:17:50;27.30;;;21.63;;
16270;SDS011;8243;49.048;8.396;2023-02-10T11:22:59;25.70;;;20.17;;
16270;SDS011;8243;49.048;8.396;2023-02-10T11:25:31;29.10;;;21.03;;
16270;SDS011;8243;49.048;8.396;2023-02-10T11:27:59;29.57;;;20.90;;
16270;SDS011;8243;49.048;8.396;2023-02-10T11:30:33;28.23;;;21.87;;
16270;SDS011;8243;49.048;8.396;2023-02-10T11:33:01;29.67;;;20.77;;
16270;SDS011;8243;49.048;8.396;2023-02-10T11:35:28;30.77;;;21.90;;
16270;SDS011;8243;49.048;8.396;2023-02-10T11:38:05;27.73;;;20.37;;
16270;SDS011;8243;49.048;8.396;2023-02-10T11:40:54;26.60;;;20.60;;
16270;SDS011;8243;49.048;8.396;2023-02-10T11:43:24;25.37;;;20.37;;
16270;SDS011;8243;49.048;8.396;2023-02-10T11:45:56;27.67;;;20.50;;
16270;SDS011;8243;49.048;8.396;2023-02-10T11:48:24;25.37;;;19.73;;
16270;SDS011;8243;49.048;8.396;2023-02-10T11:53:29;25.40;;;19.27;;
16270;SDS011;8243;49.048;8.396;2023-02-10T11:56:01;25.57;;;18.60;;
16270;SDS011;8243;49.048;8.396;2023-02-10T12:06:52;24.50;;;18.13;;
16270;SDS011;8243;49.048;8.396;2023-02-10T12:09:40;23.97;;;18.37;;
16270;SDS011;8243;49.048;8.396;2023-02-10T12:17:28;24.47;;;18.03;;
16270;SDS011;8243;49.048;8.396;2023-02-10T12:20:11;23.73;;;18.37;;
16270;SDS011;8243;49.048;8.396;2023-02-10T12:26:01;23.03;;;18.20;;
16270;SDS011;8243;49.048;8.396;2023-02-10T12:34:22;24.83;;;17.83;;
16270;SDS011;8243;49.048;8.396;2023-02-10T12:39:49;26.90;;;18.93;;
16270;SDS011;8243;49.048;8.396;2023-02-10T12:42:34;24.00;;;18.17;;
16270;SDS011;8243;49.048;8.396;2023-02-10T12:46:06;25.70;;;19.20;;
16270;SDS011;8243;49.048;8.396;2023-02-10T12:48:13;28.63;;;19.47;;
16270;SDS011;8243;49.048;8.396;2023-02-10T12:53:26;24.97;;;17.80;;
16270;SDS011;8243;49.048;8.396;2023-02-10T12:56:05;24.13;;;17.57;;
16270;SDS011;8243;49.048;8.396;2023-02-10T12:58:39;24.80;;;18.20;;
16270;SDS011;8243;49.048;8.396;2023-02-10T13:01:29;25.20;;;17.60;;
16270;SDS011;8243;49.048;8.396;2023-02-10T13:04:18;24.83;;;18.43;;
16270;SDS011;8243;49.048;8.396;2023-02-10T13:10:04;22.80;;;17.53;;
16270;SDS011;8243;49.048;8.396;2023-02-10T13:12:41;21.17;;;16.97;;
16270;SDS011;8243;49.048;8.396;2023-02-10T13:15:25;23.80;;;18.30;;
16270;SDS011;8243;49.048;8.396;2023-02-10T13:18:02;23.27;;;18.33;;
16270;SDS011;8243;49.048;8.396;2023-02-10T13:20:42;25.67;;;18.50;;
16270;SDS011;8243;49.048;8.396;2023-02-10T13:36:45;23.23;;;16.53;;
16270;SDS011;8243;49.048;8.396;2023-02-10T13:39:19;23.87;;;19.13;;
16270;SDS011;8243;49.048;8.396;2023-02-10T13:42:03;24.00;;;18.50;;
16270;SDS011;8243;49.048;8.396;2023-02-10T13:44:59;25.73;;;19.27;;
16270;SDS011;8243;49.048;8.396;2023-02-10T13:47:30;22.60;;;17.53;;
16270;SDS011;8243;49.048;8.396;2023-02-10T13:50:01;25.23;;;17.77;;
16270;SDS011;8243;49.048;8.396;2023-02-10T13:55:48;21.33;;;16.67;;
16270;SDS011;8243;49.048;8.396;2023-02-10T14:00:48;21.23;;;16.57;;
16270;SDS011;8243;49.048;8.396;2023-02-10T14:05:51;22.10;;;17.33;;
16270;SDS011;8243;49.048;8.396;2023-02-10T14:11:27;23.73;;;17.00;;
16270;SDS011;8243;49.048;8.396;2023-02-10T14:13:56;20.73;;;16.37;;
16270;SDS011;8243;49.048;8.396;2023-02-10T14:16:38;23.70;;;18.10;;
16270;SDS011;8243;49.048;8.396;2023-02-10T14:19:18;24.57;;;17.47;;
16270;SDS011;8243;49.048;8.396;2023-02-10T14:21:51;20.77;;;16.53;;
16270;SDS011;8243;49.048;8.396;2023-02-10T14:24:22;23.27;;;17.00;;
16270;SDS011;8243;49.048;8.396;2023-02-10T14:26:50;21.57;;;15.30;;
16270;SDS011;8243;49.048;8.396;2023-02-10T14:29:17;22.37;;;16.47;;
16270;SDS011;8243;49.048;8.396;2023-02-10T14:31:45;21.33;;;16.87;;
16270;SDS011;8243;49.048;8.396;2023-02-10T14:34:17;23.10;;;17.47;;
16270;SDS011;8243;49.048;8.396;2023-02-10T14:36:50;22.63;;;17.33;;
16270;SDS011;8243;49.048;8.396;2023-02-10T14:39:19;23.20;;;17.33;;
16270;SDS011;8243;49.048;8.396;2023-02-10T14:41:50;21.73;;;17.40;;
16270;SDS011;8243;49.048;8.396;2023-02-10T14:44:23;22.20;;;17.23;;
16270;SDS011;8243;49.048;8.396;2023-02-10T14:47:03;21.93;;;16.87;;
16270;SDS011;8243;49.048;8.396;2023-02-10T14:49:30;25.27;;;17.37;;
16270;SDS011;8243;49.048;8.396;2023-02-10T14:52:02;23.13;;;16.63;;
16270;SDS011;8243;49.048;8.396;2023-02-10T14:54:28;20.30;;;16.20;;
16270;SDS011;8243;49.048;8.396;2023-02-10T14:57:01;22.43;;;15.57;;
16270;SDS011;8243;49.048;8.396;2023-02-10T14:59:28;21.90;;;16.00;;
16270;SDS011;8243;49.048;8.396;2023-02-10T15:01:59;20.23;;;15.13;;
16270;SDS011;8243;49.048;8.396;2023-02-10T15:04:45;20.47;;;15.30;;
16270;SDS011;8243;49.048;8.396;2023-02-10T15:07:14;21.10;;;15.30;;
16270;SDS011;8243;49.048;8.396;2023-02-10T15:09:45;24.13;;;16.83;;
16270;SDS011;8243;49.048;8.396;2023-02-10T15:12:14;22.20;;;16.90;;
16270;SDS011;8243;49.048;8.396;2023-02-10T15:14:45;23.23;;;17.47;;
16270;SDS011;8243;49.048;8.396;2023-02-10T15:17:13;25.50;;;17.70;;
16270;SDS011;8243;49.048;8.396;2023-02-10T15:19:51;25.67;;;17.23;;
16270;SDS011;8243;49.048;8.396;2023-02-10T15:28:20;24.57;;;19.23;;
16270;SDS011;8243;49.048;8.396;2023-02-10T15:30:54;26.17;;;18.70;;
16270;SDS011;8243;49.048;8.396;2023-02-10T15:36:35;25.50;;;18.60;;
16270;SDS011;8243;49.048;8.396;2023-02-10T15:39:04;27.63;;;19.83;;
16270;SDS011;8243;49.048;8.396;2023-02-10T15:41:42;24.87;;;18.27;;
16270;SDS011;8243;49.048;8.396;2023-02-10T15:46:47;26.23;;;19.40;;
16270;SDS011;8243;49.048;8.396;2023-02-10T15:49:15;23.77;;;18.60;;
16270;SDS011;8243;49.048;8.396;2023-02-10T15:51:50;24.30;;;17.90;;
16270;SDS011;8243;49.048;8.396;2023-02-10T15:54:19;29.20;;;19.63;;
16270;SDS011;8243;49.048;8.396;2023-02-10T15:56:58;25.87;;;18.90;;
16270;SDS011;8243;49.048;8.396;2023-02-10T15:59:31;27.13;;;19.27;;
16270;SDS011;8243;49.048;8.396;2023-02-10T16:01:57;28.93;;;20.07;;
16270;SDS011;8243;49.048;8.396;2023-02-10T16:04:29;26.73;;;19.17;;
16270;SDS011;8243;49.048;8.396;2023-02-10T16:06:58;26.23;;;19.43;;
16270;SDS011;8243;49.048;8.396;2023-02-10T16:09:25;27.50;;;19.00;;
16270;SDS011;8243;49.048;8.396;2023-02-10T16:11:51;25.87;;;19.67;;
16270;SDS011;8243;49.048;8.396;2023-02-10T16:14:17;26.33;;;19.57;;
16270;SDS011;8243;49.048;8.396;2023-02-10T16:16:43;28.13;;;19.50;;
16270;SDS011;8243;49.048;8.396;2023-02-10T16:19:17;27.53;;;19.97;;
16270;SDS011;8243;49.048;8.396;2023-02-10T16:21:45;27.37;;;18.77;;
16270;SDS011;8243;49.048;8.396;2023-02-10T16:24:15;25.10;;;18.83;;
16270;SDS011;8243;49.048;8.396;2023-02-10T16:26:43;31.30;;;21.47;;
16270;SDS011;8243;49.048;8.396;2023-02-10T16:29:19;32.30;;;21.73;;
16270;SDS011;8243;49.048;8.396;2023-02-10T16:31:50;33.20;;;21.60;;
16270;SDS011;8243;49.048;8.396;2023-02-10T16:34:15;34.00;;;21.90;;
16270;SDS011;8243;49.048;8.396;2023-02-10T16:36:41;32.53;;;21.23;;
16270;SDS011;8243;49.048;8.396;2023-02-10T16:39:10;33.30;;;21.90;;
16270;SDS011;8243;49.048;8.396;2023-02-10T16:41:39;35.73;;;22.60;;
16270;SDS011;8243;49.048;8.396;2023-02-10T16:44:05;29.40;;;20.47;;
16270;SDS011;8243;49.048;8.396;2023-02-10T16:46:30;27.47;;;19.03;;
16270;SDS011;8243;49.048;8.396;2023-02-10T16:48:56;29.63;;;18.93;;